Time;durP1;ratioP1;P1;durP2;ratioP2;P2;SDS_P1;SDS_P2;PMS_P1;PMS_P2;Temp;Humidity;BMP_temperature;BMP_pressure;BME280_temperature;BME280_humidity;BME280_pressure;Samples;Min_cycle;Max_cycle;Signal;HPM_P1;HPM_P2
2022/11/24 00:00:52;;;;;;;71.35;30.92;;;;;;;-0.40;93.23;100087.03;1756609;79;26435;-83
2022/11/24 00:03:20;;;;;;;60.50;27.00;;;;;;;-0.42;93.43;100082.38;1761622;79;25317;-83
2022/11/24 00:05:47;;;;;;;65.08;30.20;;;;;;;-0.40;93.58;100080.45;1748028;79;25898;-83
2022/11/24 00:08:13;;;;;;;70.10;29.25;;;;;;;-0.41;93.63;100080.13;1800740;79;27418;-83
2022/11/24 00:10:40;;;;;;;68.42;30.27;;;;;;;-0.40;93.64;100081.30;1787720;78;26015;-83
2022/11/24 00:13:06;;;;;;;65.83;27.95;;;;;;;-0.41;93.56;100077.48;1822810;78;25969;-83
2022/11/24 00:15:32;;;;;;;63.98;27.85;;;;;;;-0.42;93.65;100069.23;1800540;78;25863;-83
2022/11/24 00:17:59;;;;;;;62.20;26.70;;;;;;;-0.43;93.77;100078.95;1810517;78;25766;-83
2022/11/24 00:20:26;;;;;;;61.15;28.75;;;;;;;-0.45;93.67;100075.58;1802676;78;27454;-82
2022/11/24 00:22:52;;;;;;;63.05;25.77;;;;;;;-0.51;93.61;100066.89;1785857;78;25633;-82
2022/11/24 00:25:18;;;;;;;65.08;28.65;;;;;;;-0.53;93.73;100079.34;1811962;78;25724;-83
2022/11/24 00:27:44;;;;;;;66.57;29.67;;;;;;;-0.51;94.01;100086.62;1807228;78;26980;-83
2022/11/24 00:30:11;;;;;;;60.55;25.80;;;;;;;-0.48;94.05;100081.12;1737485;81;25807;-83
2022/11/24 00:32:38;;;;;;;53.13;25.75;;;;;;;-0.50;93.89;100079.58;1760591;79;27611;-84
2022/11/24 00:35:06;;;;;;;62.62;27.62;;;;;;;-0.53;93.90;100083.29;1778001;79;26020;-84
2022/11/24 00:37:32;;;;;;;59.55;26.07;;;;;;;-0.51;94.18;100081.36;1776897;79;26113;-83
2022/11/24 00:39:59;;;;;;;60.75;28.95;;;;;;;-0.48;94.22;100085.06;1786545;79;25815;-84
2022/11/24 00:42:25;;;;;;;57.50;26.25;;;;;;;-0.47;94.13;100091.98;1745434;80;25599;-83
2022/11/24 00:44:51;;;;;;;58.20;27.00;;;;;;;-0.42;94.24;100095.06;1767528;79;27420;-83
2022/11/24 00:47:19;;;;;;;64.25;28.30;;;;;;;-0.43;94.02;100092.10;1768316;79;25571;-83
2022/11/24 00:49:46;;;;;;;63.63;28.30;;;;;;;-0.45;94.02;100087.42;1767357;79;25733;-83
2022/11/24 00:52:12;;;;;;;67.67;29.07;;;;;;;-0.46;93.95;100082.30;1763936;79;26265;-83
2022/11/24 00:54:38;;;;;;;64.25;28.05;;;;;;;-0.48;94.05;100077.65;1760509;80;25768;-84
2022/11/24 00:57:04;;;;;;;53.55;24.27;;;;;;;-0.49;94.02;100081.25;1770846;80;28264;-83
2022/11/24 00:59:31;;;;;;;69.72;26.45;;;;;;;-0.52;94.03;100081.50;1740375;81;26066;-84
2022/11/24 01:01:57;;;;;;;56.30;25.72;;;;;;;-0.58;94.00;100061.83;1765360;80;25833;-84
2022/11/24 01:04:24;;;;;;;57.43;24.63;;;;;;;-0.61;94.12;100071.75;1755488;81;26575;-83
2022/11/24 01:06:50;;;;;;;60.73;27.15;;;;;;;-0.62;94.37;100081.93;1766113;79;25781;-83
2022/11/24 01:09:16;;;;;;;66.60;28.98;;;;;;;-0.63;94.36;100082.88;1743439;81;27302;-83
2022/11/24 01:12:01;;;;;;;57.25;26.50;;;;;;;-0.61;94.52;100092.78;1749008;81;25986;-83
2022/11/24 01:14:28;;;;;;;59.53;25.75;;;;;;;-0.59;94.54;100085.60;1740816;81;25611;-83
2022/11/24 01:16:55;;;;;;;53.98;21.65;;;;;;;-0.62;94.46;100089.31;1742738;81;25862;-84
2022/11/24 01:19:23;;;;;;;57.03;26.35;;;;;;;-0.65;94.50;100076.44;1752755;80;25335;-84
2022/11/24 01:21:49;;;;;;;54.98;24.82;;;;;;;-0.67;94.54;100078.84;1770077;79;27458;-83
2022/11/24 01:24:16;;;;;;;58.38;24.80;;;;;;;-0.67;94.53;100081.00;1757201;79;25854;-84
2022/11/24 01:26:42;;;;;;;50.40;21.20;;;;;;;-0.69;94.50;100084.71;1770546;79;25738;-84
2022/11/24 01:29:10;;;;;;;51.30;23.35;;;;;;;-0.71;94.50;100079.59;1765040;79;25775;-83
2022/11/24 01:31:37;;;;;;;50.65;23.05;;;;;;;-0.73;94.60;100085.45;1769246;80;25827;-83
2022/11/24 01:34:03;;;;;;;43.40;21.50;;;;;;;-0.77;94.60;100077.47;1751916;79;27450;-83
2022/11/24 01:36:29;;;;;;;52.00;23.05;;;;;;;-0.77;94.66;100080.91;1762145;79;25513;-84
2022/11/24 01:38:56;;;;;;;55.25;23.90;;;;;;;-0.75;94.77;100076.02;1772640;79;26406;-84
2022/11/24 01:41:24;;;;;;;53.55;24.50;;;;;;;-0.71;94.84;100076.12;1760097;79;25753;-83
2022/11/24 01:43:53;;;;;;;47.67;22.32;;;;;;;-0.72;94.81;100077.91;1772259;79;26391;-83
2022/11/24 01:46:40;;;;;;;47.95;22.40;;;;;;;-0.72;94.75;100078.38;1763207;79;28780;-82
2022/11/24 01:49:17;;;;;;;52.38;24.47;;;;;;;-0.73;94.70;100076.25;1751547;81;26154;-84
2022/11/24 01:52:14;;;;;;;53.10;22.77;;;;;;;-0.70;94.84;100083.03;1769684;79;25840;-83
2022/11/24 01:54:54;;;;;;;53.08;24.32;;;;;;;-0.65;94.95;100088.75;1736593;82;25907;-84
2022/11/24 01:57:34;;;;;;;54.03;23.80;;;;;;;-0.63;94.85;100086.34;1763001;81;25795;-83
2022/11/24 02:00:05;;;;;;;53.68;22.55;;;;;;;-0.64;94.73;100082.04;1746700;81;27516;-84
2022/11/24 02:02:34;;;;;;;46.63;21.35;;;;;;;-0.63;94.77;100078.94;1738197;81;25470;-83
2022/11/24 02:05:07;;;;;;;55.83;24.75;;;;;;;-0.62;94.81;100078.80;1725137;81;25791;-83
2022/11/24 02:07:35;;;;;;;51.25;23.60;;;;;;;-0.63;94.83;100083.72;1738171;81;25867;-83
2022/11/24 02:10:07;;;;;;;52.30;22.82;;;;;;;-0.60;94.90;100080.00;1756502;79;26370;-83
2022/11/24 02:12:36;;;;;;;44.95;20.35;;;;;;;-0.58;94.85;100087.28;1769066;79;27477;-83
2022/11/24 02:15:02;;;;;;;53.13;25.05;;;;;;;-0.58;94.70;100084.66;1760723;79;25920;-84
2022/11/24 02:17:29;;;;;;;50.03;23.42;;;;;;;-0.61;94.68;100082.27;1768128;79;25350;-83
2022/11/24 02:19:59;;;;;;;48.63;22.87;;;;;;;-0.63;94.62;100082.41;1772441;79;25900;-84
2022/11/24 02:22:38;;;;;;;;;;;;;;;-0.64;94.56;100090.43;1752725;81;26021;-83
2022/11/24 02:25:24;;;;;;;53.87;24.35;;;;;;;-0.68;94.66;100086.39;1767210;79;27456;-83
2022/11/24 02:27:53;;;;;;;55.78;25.25;;;;;;;-0.70;94.90;100084.34;1695561;80;25820;-83
2022/11/24 02:30:20;;;;;;;53.35;24.27;;;;;;;-0.68;95.02;100085.89;1702199;83;25991;-83
2022/11/24 02:32:46;;;;;;;58.52;25.20;;;;;;;-0.66;95.05;100086.59;1759229;80;25832;-83
2022/11/24 02:35:16;;;;;;;50.35;23.00;;;;;;;-0.63;95.08;100081.56;1730192;81;26151;-83
2022/11/24 02:37:42;;;;;;;53.17;23.77;;;;;;;-0.63;95.01;100079.77;1733885;82;27483;-83
2022/11/24 02:40:09;;;;;;;53.87;25.17;;;;;;;-0.64;95.00;100076.78;1769120;81;25769;-82
2022/11/24 02:42:40;;;;;;;52.15;23.98;;;;;;;-0.62;95.12;100078.80;1735806;82;25752;-83
2022/11/24 02:45:08;;;;;;;;;;;;;;;-0.59;95.16;100080.34;1765214;81;25960;-83
2022/11/24 02:47:34;;;;;;;46.28;20.55;;;;;;;-0.56;95.15;100080.94;1741222;79;25809;-84
2022/11/24 02:50:00;;;;;;;50.83;21.52;;;;;;;-0.59;95.04;100073.77;1722872;81;27631;-83
2022/11/24 02:52:27;;;;;;;45.08;20.37;;;;;;;-0.59;95.14;100082.97;1747671;81;26627;-83
2022/11/24 02:54:54;;;;;;;48.65;21.95;;;;;;;-0.61;95.10;100084.42;1759259;81;26095;-83
2022/11/24 02:57:22;;;;;;;52.43;22.13;;;;;;;-0.59;95.23;100084.28;1771911;80;25931;-84
2022/11/24 02:59:48;;;;;;;55.58;24.20;;;;;;;-0.55;95.33;100083.06;1758487;79;25681;-83
2022/11/24 03:02:15;;;;;;;50.67;23.52;;;;;;;-0.53;95.34;100082.45;1765997;79;27297;-83
2022/11/24 03:04:43;;;;;;;44.90;20.90;;;;;;;-0.50;95.39;100076.94;1767033;79;25327;-83
2022/11/24 03:07:09;;;;;;;47.33;21.10;;;;;;;-0.49;95.27;100080.75;1778938;79;25811;-83
2022/11/24 03:09:36;;;;;;;49.18;22.98;;;;;;;-0.50;95.22;100084.36;1768691;79;26438;-83
2022/11/24 03:12:02;;;;;;;47.48;21.45;;;;;;;-0.48;95.32;100078.96;1768157;79;25662;-83
2022/11/24 03:14:29;;;;;;;37.40;17.95;;;;;;;-0.47;95.30;100078.02;1764604;79;27476;-83
2022/11/24 03:16:55;;;;;;;34.35;17.90;;;;;;;-0.44;95.29;100083.00;1739010;80;25818;-84
2022/11/24 03:19:21;;;;;;;42.15;19.65;;;;;;;-0.48;95.04;100077.65;1749484;80;25792;-83
2022/11/24 03:21:47;;;;;;;37.15;18.55;;;;;;;-0.52;95.04;100079.71;1767835;79;25934;-84
2022/11/24 03:24:14;;;;;;;38.40;17.60;;;;;;;-0.53;95.13;100080.66;1751628;80;25977;-83
2022/11/24 03:26:40;;;;;;;41.95;20.25;;;;;;;-0.52;95.12;100084.13;1754394;81;27634;-83
2022/11/24 03:29:08;;;;;;;34.98;16.87;;;;;;;-0.53;95.15;100080.66;1785408;79;26522;-83
2022/11/24 03:31:34;;;;;;;32.63;15.70;;;;;;;-0.55;95.04;100077.33;1757947;79;25816;-84
2022/11/24 03:34:00;;;;;;;41.08;18.17;;;;;;;-0.57;95.09;100081.88;1776036;79;25807;-83
2022/11/24 03:36:27;;;;;;;36.23;17.70;;;;;;;-0.56;95.22;100079.62;1774843;79;25356;-83
2022/11/24 03:38:53;;;;;;;35.25;16.75;;;;;;;-0.54;95.15;100088.69;1771672;79;27602;-83
2022/11/24 03:41:19;;;;;;;34.45;17.57;;;;;;;-0.55;95.19;100091.80;1758104;79;25843;-83
2022/11/24 03:43:45;;;;;;;28.38;14.18;;;;;;;-0.56;95.22;100091.93;1781332;79;25879;-82
2022/11/24 03:46:12;;;;;;;28.75;14.78;;;;;;;-0.55;95.21;100094.42;1751005;80;26378;-83
2022/11/24 03:48:38;;;;;;;33.63;15.90;;;;;;;-0.58;95.14;100091.23;1751213;81;26132;-83
2022/11/24 03:51:05;;;;;;;38.00;17.02;;;;;;;-0.58;95.26;100093.39;1741899;81;27458;-83
2022/11/24 03:53:33;;;;;;;32.67;16.37;;;;;;;-0.56;95.35;100090.14;1781842;79;25746;-84
2022/11/24 03:56:00;;;;;;;31.93;16.52;;;;;;;-0.53;95.36;100094.28;1766532;79;25845;-83
2022/11/24 03:58:28;;;;;;;34.43;17.20;;;;;;;-0.50;95.44;100096.67;1766080;79;25839;-83
2022/11/24 04:00:54;;;;;;;27.85;15.70;;;;;;;-0.51;95.36;100098.46;1771427;80;26392;-83
2022/11/24 04:03:22;;;;;;;32.85;16.10;;;;;;;-0.51;95.29;100097.15;1768264;79;28254;-83
2022/11/24 04:05:49;;;;;;;31.55;16.45;;;;;;;-0.50;95.25;100094.05;1798060;78;25711;-84
2022/11/24 04:08:16;;;;;;;34.40;16.05;;;;;;;-0.49;95.38;100093.09;1804612;78;26382;-84
2022/11/24 04:10:42;;;;;;;31.48;15.72;;;;;;;-0.49;95.40;100099.16;1792889;78;26138;-84
2022/11/24 04:13:15;;;;;;;31.25;15.68;;;;;;;-0.49;95.24;100096.53;1814171;78;25730;-83
2022/11/24 04:15:43;;;;;;;29.23;14.90;;;;;;;-0.50;95.21;100097.52;1811983;78;27459;-83
2022/11/24 04:18:11;;;;;;;27.32;14.28;;;;;;;-0.50;95.25;100101.94;1816440;78;25861;-84
2022/11/24 04:20:37;;;;;;;34.67;16.73;;;;;;;-0.53;95.09;100099.08;1813948;78;25303;-84
2022/11/24 04:23:04;;;;;;;31.15;15.88;;;;;;;-0.56;95.18;100104.61;1812168;78;25751;-83
2022/11/24 04:25:30;;;;;;;33.13;15.00;;;;;;;-0.58;95.22;100105.22;1789501;78;25338;-83
2022/11/24 04:27:57;;;;;;;31.17;16.42;;;;;;;-0.58;95.22;100104.38;1799743;78;27502;-83
2022/11/24 04:30:25;;;;;;;33.58;15.32;;;;;;;-0.60;95.26;100104.52;1812372;77;26461;-84
2022/11/24 04:32:52;;;;;;;30.50;14.70;;;;;;;-0.58;95.45;100116.22;1814183;78;25923;-83
2022/11/24 04:35:19;;;;;;;31.15;14.83;;;;;;;-0.57;95.46;100117.39;1794170;78;25833;-83
2022/11/24 04:37:46;;;;;;;28.32;14.10;;;;;;;-0.55;95.51;100113.31;1807196;78;25862;-83
2022/11/24 04:40:13;;;;;;;34.18;15.23;;;;;;;-0.52;95.58;100111.28;1807433;78;27632;-83
2022/11/24 04:42:39;;;;;;;28.38;14.50;;;;;;;-0.53;95.52;100105.65;1798289;78;25745;-83
2022/11/24 04:45:07;;;;;;;27.07;14.30;;;;;;;-0.52;95.51;100114.38;1815650;78;25806;-83
2022/11/24 04:47:34;;;;;;;30.72;14.63;;;;;;;-0.56;95.46;100115.61;1815779;78;26424;-83
2022/11/24 04:50:00;;;;;;;33.67;17.48;;;;;;;-0.59;95.45;100119.32;1800509;78;25743;-83
2022/11/24 04:52:28;;;;;;;30.72;16.02;;;;;;;-0.56;95.70;100119.08;1795544;77;27449;-84
2022/11/24 04:54:55;;;;;;;33.30;16.40;;;;;;;-0.55;95.70;100118.57;1799632;78;25925;-83
2022/11/24 04:57:24;;;;;;;31.12;16.10;;;;;;;-0.53;95.70;100130.64;1798288;78;26307;-83
2022/11/24 04:59:52;;;;;;;32.58;16.30;;;;;;;-0.51;95.80;100130.53;1813771;78;25937;-83
2022/11/24 05:02:21;;;;;;;33.70;16.20;;;;;;;-0.43;95.95;100134.19;1813650;78;25841;-83
2022/11/24 05:04:48;;;;;;;30.75;16.50;;;;;;;-0.40;95.82;100146.23;1803591;78;28045;-84
2022/11/24 05:07:16;;;;;;;30.25;15.55;;;;;;;-0.39;95.75;100154.02;1790688;78;25650;-83
2022/11/24 05:12:30;;;;;;;31.48;15.60;;;;;;;-0.41;95.36;100150.69;1809987;78;25932;-85
2022/11/24 05:14:58;;;;;;;28.60;15.43;;;;;;;-0.44;95.35;100146.98;1806666;77;25608;-84
2022/11/24 05:17:30;;;;;;;34.27;17.70;;;;;;;-0.43;95.36;100146.03;1803346;78;27453;-84
2022/11/24 05:19:57;;;;;;;32.30;16.02;;;;;;;-0.40;95.54;100143.59;1765770;79;26493;-84
2022/11/24 05:22:25;;;;;;;29.67;16.42;;;;;;;-0.36;95.61;100145.01;1766445;79;25798;-84
2022/11/24 05:24:52;;;;;;;30.55;15.88;;;;;;;-0.36;95.56;100140.59;1771781;79;25807;-84
2022/11/24 05:27:18;;;;;;;30.55;15.50;;;;;;;-0.35;95.52;100143.59;1746536;81;26424;-84
2022/11/24 05:29:44;;;;;;;32.67;16.52;;;;;;;-0.36;95.34;100136.64;1741955;81;27468;-83
2022/11/24 05:32:11;;;;;;;29.90;16.20;;;;;;;-0.35;95.36;100138.80;1755586;80;26385;-84
2022/11/24 05:34:38;;;;;;;30.10;16.25;;;;;;;-0.36;95.30;100142.37;1759551;80;25675;-83
2022/11/24 05:37:04;;;;;;;33.02;16.48;;;;;;;-0.36;95.34;100145.01;1757715;80;26476;-83
2022/11/24 05:39:33;;;;;;;33.55;17.70;;;;;;;-0.34;95.48;100147.87;1767124;79;25822;-84
2022/11/24 05:42:44;;;;;;;35.05;17.82;;;;;;;-0.31;95.58;100147.62;1733222;80;27467;-84
2022/11/24 05:44:33;;;;;;;36.03;17.15;;;;;;;-0.28;95.49;100143.91;1723781;81;25848;-84
2022/11/24 05:46:59;;;;;;;28.25;15.20;;;;;;;-0.26;95.46;100144.61;1766646;79;25833;-84
2022/11/24 05:49:25;;;;;;;34.43;17.60;;;;;;;-0.24;95.40;100146.63;1755397;80;26522;-84
2022/11/24 05:51:51;;;;;;;34.55;18.45;;;;;;;-0.23;95.41;100153.08;1765610;79;25824;-84
2022/11/24 05:54:18;;;;;;;34.95;18.02;;;;;;;-0.20;95.45;100158.56;1755088;80;27458;-84
2022/11/24 05:56:44;;;;;;;32.38;16.80;;;;;;;-0.19;95.34;100153.64;1752292;80;25801;-84
2022/11/24 05:59:11;;;;;;;38.40;18.75;;;;;;;-0.17;95.38;100153.86;1758028;81;25366;-84
2022/11/24 06:01:39;;;;;;;33.30;16.50;;;;;;;-0.15;95.21;100159.02;1756427;79;25867;-84
2022/11/24 06:04:05;;;;;;;33.35;16.97;;;;;;;-0.17;94.98;100158.31;1770963;79;26374;-83
2022/11/24 06:06:31;;;;;;;32.50;17.92;;;;;;;-0.19;95.00;100162.37;1773261;79;27522;-84
2022/11/24 06:08:58;;;;;;;35.58;19.62;;;;;;;-0.17;95.18;100167.53;1746846;81;26486;-84
2022/11/24 06:11:24;;;;;;;32.20;17.27;;;;;;;-0.14;95.13;100165.94;1764091;80;25828;-84
2022/11/24 06:13:50;;;;;;;33.80;16.95;;;;;;;-0.13;95.18;100166.30;1765349;79;25793;-83
2022/11/24 06:16:16;;;;;;;33.53;17.77;;;;;;;-0.15;94.91;100165.09;1762835;79;25446;-83
2022/11/24 06:18:43;;;;;;;33.40;17.52;;;;;;;-0.16;94.92;100173.97;1735998;81;28266;-84
2022/11/24 06:21:09;;;;;;;34.23;17.48;;;;;;;-0.19;94.75;100172.06;1749751;81;25750;-84
2022/11/24 06:23:35;;;;;;;33.42;16.62;;;;;;;-0.20;94.87;100176.52;1750589;80;25299;-84
2022/11/24 06:26:03;;;;;;;36.65;17.77;;;;;;;-0.20;94.89;100185.72;1748331;80;25861;-83
2022/11/24 06:28:30;;;;;;;37.13;18.52;;;;;;;-0.23;94.90;100183.34;1752919;79;25310;-84
2022/11/24 06:31:02;;;;;;;34.95;18.17;;;;;;;-0.22;95.10;100185.02;1763971;79;27465;-84
2022/11/24 06:33:34;;;;;;;39.63;18.98;;;;;;;-0.18;95.26;100192.17;1757539;81;26594;-83
2022/11/24 06:36:07;;;;;;;36.42;19.27;;;;;;;-0.17;95.10;100192.54;1756743;79;25786;-84
2022/11/24 06:38:35;;;;;;;42.25;19.80;;;;;;;-0.16;95.08;100192.87;1802479;78;25966;-84
2022/11/24 06:41:06;;;;;;;37.65;19.32;;;;;;;-0.19;95.07;100192.64;1800583;78;26307;-84
2022/11/24 06:43:34;;;;;;;;;;;;;;;-0.17;95.17;100192.54;1803673;78;27569;-84
2022/11/24 06:46:01;;;;;;;36.88;18.82;;;;;;;-0.19;95.05;100201.02;1796925;78;26286;-84
2022/11/24 06:48:28;;;;;;;36.77;19.15;;;;;;;-0.25;95.05;100202.38;1795859;78;25870;-85
2022/11/24 06:51:05;;;;;;;38.58;18.48;;;;;;;-0.25;95.28;100200.22;1797521;78;25803;-83
2022/11/24 06:53:37;;;;;;;43.38;20.60;;;;;;;-0.23;95.46;100202.23;1800258;78;25325;-84
2022/11/24 06:56:10;;;;;;;41.05;20.08;;;;;;;-0.19;95.65;100197.06;1798477;79;27492;-84
2022/11/24 06:58:46;;;;;;;36.88;18.10;;;;;;;-0.16;95.56;100202.09;1794560;79;26052;-83
2022/11/24 07:01:19;;;;;;;34.67;18.77;;;;;;;-0.19;95.32;100204.48;1795971;78;25537;-84
2022/11/24 07:03:47;;;;;;;36.15;18.32;;;;;;;-0.23;95.30;100209.66;1795837;79;25808;-83
2022/11/24 07:06:15;;;;;;;34.20;17.70;;;;;;;-0.24;95.45;100205.84;1802158;78;25295;-84
2022/11/24 07:08:42;;;;;;;37.98;18.92;;;;;;;-0.26;95.50;100208.62;1790016;78;28305;-83
2022/11/24 07:11:14;;;;;;;34.48;17.57;;;;;;;-0.26;95.55;100201.20;1806363;78;25830;-83
2022/11/24 07:13:45;;;;;;;37.13;18.95;;;;;;;-0.25;95.80;100207.64;1797872;78;25776;-84
2022/11/24 07:16:23;;;;;;;39.18;18.87;;;;;;;-0.25;95.71;100200.22;1798363;78;26634;-83
2022/11/24 07:18:52;;;;;;;38.70;17.85;;;;;;;-0.26;95.76;100211.25;1810292;78;25816;-83
2022/11/24 07:21:21;;;;;;;41.90;19.80;;;;;;;-0.25;95.78;100212.90;1817055;78;28113;-84
2022/11/24 07:23:50;;;;;;;39.75;19.52;;;;;;;-0.27;95.73;100213.52;1801474;78;25870;-83
2022/11/24 07:26:17;;;;;;;41.45;19.80;;;;;;;-0.26;95.92;100212.56;1795930;78;25814;-83
2022/11/24 07:28:44;;;;;;;36.58;18.90;;;;;;;-0.23;95.94;100219.34;1791090;78;26305;-83
2022/11/24 07:31:16;;;;;;;36.48;18.87;;;;;;;-0.22;95.93;100222.34;1801509;78;26347;-84
2022/11/24 07:33:42;;;;;;;40.83;20.60;;;;;;;-0.23;95.78;100219.34;1801745;78;28677;-84
2022/11/24 07:36:08;;;;;;;37.55;19.10;;;;;;;-0.20;95.99;100217.31;1767095;79;25940;-84
2022/11/24 07:38:35;;;;;;;40.50;19.85;;;;;;;-0.15;96.08;100215.61;1770753;79;25838;-84
2022/11/24 07:41:08;;;;;;;43.33;19.55;;;;;;;-0.12;96.01;100218.81;1750591;80;26153;-84
2022/11/24 07:43:36;;;;;;;37.08;18.42;;;;;;;-0.10;95.81;100214.73;1763556;79;26073;-84
2022/11/24 07:46:05;;;;;;;40.17;19.92;;;;;;;-0.11;95.84;100224.92;1775534;79;27448;-84
2022/11/24 07:48:32;;;;;;;42.20;19.92;;;;;;;-0.10;95.87;100222.63;1754327;79;26431;-84
2022/11/24 07:51:01;;;;;;;31.85;16.27;;;;;;;-0.11;95.85;100227.05;1754135;80;25874;-84
2022/11/24 07:53:28;;;;;;;35.92;18.57;;;;;;;-0.08;95.88;100235.17;1759164;79;25826;-84
2022/11/24 07:56:00;;;;;;;35.95;17.87;;;;;;;-0.06;95.93;100231.93;1765550;79;25946;-84
2022/11/24 07:58:30;;;;;;;34.13;15.88;;;;;;;-0.09;95.67;100234.36;1755115;81;28146;-84
2022/11/24 08:00:59;;;;;;;31.33;15.72;;;;;;;-0.14;95.57;100232.59;1763037;79;25764;-84
2022/11/24 08:03:25;;;;;;;34.45;17.30;;;;;;;-0.14;95.71;100237.85;1781916;79;25839;-84
2022/11/24 08:05:57;;;;;;;32.85;16.07;;;;;;;-0.12;95.77;100245.14;1737413;81;25888;-84
2022/11/24 08:08:25;;;;;;;33.92;16.90;;;;;;;-0.15;95.61;100241.43;1751688;79;26041;-83
2022/11/24 08:10:52;;;;;;;29.90;16.15;;;;;;;-0.17;95.56;100238.59;1768113;79;27447;-83
2022/11/24 08:13:19;;;;;;;29.40;14.20;;;;;;;-0.15;95.71;100236.67;1759989;79;25848;-83
2022/11/24 08:15:45;;;;;;;30.80;15.20;;;;;;;-0.17;95.64;100230.20;1761779;81;26159;-83
2022/11/24 08:18:12;;;;;;;30.20;15.65;;;;;;;-0.17;95.62;100229.39;1753977;79;26543;-81
2022/11/24 08:20:38;;;;;;;25.17;13.53;;;;;;;-0.16;95.67;100230.56;1756425;79;25635;-85
2022/11/24 08:23:04;;;;;;;27.67;14.87;;;;;;;-0.17;95.55;100230.70;1756940;79;27519;-84
2022/11/24 08:25:32;;;;;;;27.07;13.38;;;;;;;-0.18;95.57;100232.97;1751186;81;25360;-85
2022/11/24 08:28:01;;;;;;;23.98;11.48;;;;;;;-0.19;95.50;100236.07;1761514;79;25564;-84
2022/11/24 08:30:28;;;;;;;27.42;14.33;;;;;;;-0.21;95.61;100236.68;1759565;79;26520;-82
2022/11/24 08:32:54;;;;;;;28.17;13.32;;;;;;;-0.17;95.83;100241.23;1759973;79;25829;-83
2022/11/24 08:35:20;;;;;;;24.98;14.23;;;;;;;-0.12;95.88;100242.98;1757218;79;27509;-82
2022/11/24 08:37:47;;;;;;;28.47;14.85;;;;;;;-0.14;95.62;100243.59;1759511;79;25962;-82
2022/11/24 08:40:13;;;;;;;24.47;13.03;;;;;;;-0.13;95.66;100245.27;1755571;79;25824;-81
2022/11/24 08:42:39;;;;;;;27.25;13.03;;;;;;;-0.12;95.65;100251.72;1735968;81;26889;-82
2022/11/24 08:45:06;;;;;;;29.37;13.95;;;;;;;-0.09;95.67;100247.53;1751019;80;25934;-84
2022/11/24 08:47:33;;;;;;;25.75;14.23;;;;;;;-0.05;95.86;100252.05;1745060;81;27539;-83
2022/11/24 08:49:59;;;;;;;23.57;12.40;;;;;;;-0.01;95.80;100244.23;1763426;79;25901;-84
2022/11/24 08:52:25;;;;;;;28.05;14.55;;;;;;;0.00;95.68;100236.20;1759151;79;26449;-82
2022/11/24 08:54:51;;;;;;;25.02;13.30;;;;;;;0.00;95.53;100237.52;1766369;79;25788;-80
2022/11/24 08:57:18;;;;;;;30.27;15.43;;;;;;;0.03;95.37;100240.38;1751506;79;25304;-82
2022/11/24 08:59:45;;;;;;;29.95;15.35;;;;;;;0.07;95.63;100241.80;1772944;79;27474;-81
2022/11/24 09:02:12;;;;;;;28.87;14.58;;;;;;;0.14;95.88;100251.33;1747347;80;25860;-89
2022/11/24 09:04:39;;;;;;;22.93;13.18;;;;;;;0.20;95.69;100251.66;1736253;82;25349;-87
2022/11/24 09:07:07;;;;;;;27.05;14.75;;;;;;;0.21;95.39;100245.44;1770316;80;26038;-83
2022/11/24 09:09:33;;;;;;;29.40;15.20;;;;;;;0.21;95.14;100252.49;1753826;81;25891;-85
2022/11/24 09:11:59;;;;;;;27.20;13.35;;;;;;;0.21;95.16;100253.81;1740342;81;28236;-84
2022/11/24 09:14:26;;;;;;;26.15;12.68;;;;;;;0.23;95.11;100254.04;1739933;81;25833;-84
2022/11/24 09:16:52;;;;;;;28.35;13.90;;;;;;;0.25;95.29;100252.58;1748300;80;25311;-86
2022/11/24 09:19:19;;;;;;;25.32;13.60;;;;;;;0.30;95.38;100255.17;1740270;81;25778;-84
2022/11/24 09:21:45;;;;;;;28.32;13.85;;;;;;;0.32;95.35;100253.23;1749921;80;25738;-84
2022/11/24 09:24:11;;;;;;;24.40;13.70;;;;;;;0.31;95.08;100252.91;1741120;81;27687;-83
2022/11/24 09:26:38;;;;;;;26.97;15.35;;;;;;;0.33;95.12;100250.13;1759866;79;26394;-84
2022/11/24 09:29:06;;;;;;;26.95;13.90;;;;;;;0.34;95.15;100256.58;1749103;80;25857;-84
2022/11/24 09:31:36;;;;;;;29.57;15.00;;;;;;;0.37;95.04;100251.53;1737770;81;26540;-84
2022/11/24 09:34:06;;;;;;;22.52;13.28;;;;;;;0.39;95.01;100248.28;1768913;79;25788;-84
2022/11/24 09:36:33;;;;;;;28.35;14.30;;;;;;;0.40;94.96;100253.92;1769290;79;27462;-84
2022/11/24 09:38:59;;;;;;;26.85;14.20;;;;;;;0.39;94.84;100253.55;1769461;79;25806;-84
2022/11/24 09:41:40;;;;;;;24.67;13.80;;;;;;;0.36;94.68;100259.94;1747123;81;25796;-84
2022/11/24 09:44:16;;;;;;;;;;;;;;;0.38;95.01;100259.33;1735753;81;25846;-83
2022/11/24 09:47:00;;;;;;;25.00;13.28;;;;;;;0.42;95.03;100266.48;1736233;81;25815;-83
2022/11/24 09:49:38;;;;;;;25.90;13.38;;;;;;;0.43;95.41;100268.13;1756809;81;28339;-83
2022/11/24 09:52:12;;;;;;;27.80;13.83;;;;;;;0.44;95.13;100270.66;1753370;81;26410;-84
2022/11/24 09:54:44;;;;;;;23.35;12.70;;;;;;;0.42;94.70;100265.16;1762156;81;25696;-88
2022/11/24 09:57:12;;;;;;;27.55;15.08;;;;;;;0.42;94.79;100275.70;1758300;79;25936;-82
2022/11/24 09:59:40;;;;;;;28.10;14.78;;;;;;;0.45;95.12;100272.31;1757908;79;25803;-80
2022/11/24 10:02:10;;;;;;;26.75;14.18;;;;;;;0.49;95.26;100275.03;1765946;79;27468;-85
2022/11/24 10:04:40;;;;;;;;;;;;;;;0.53;95.16;100276.47;1758639;80;25358;-84
2022/11/24 10:07:29;;;;;;;25.48;12.75;;;;;;;0.52;94.86;100273.47;1761195;79;25900;-84
2022/11/24 10:10:24;;;;;;;28.30;13.78;;;;;;;0.53;95.09;100277.78;1766575;79;25837;-85
2022/11/24 10:13:22;;;;;;;27.55;14.33;;;;;;;0.53;94.96;100290.12;1770188;79;25303;-84
2022/11/24 10:16:40;;;;;;;24.85;12.40;;;;;;;0.55;95.08;100289.03;1759882;79;27352;-87
2022/11/24 10:19:45;;;;;;;26.37;13.08;;;;;;;0.62;95.20;100288.02;1748903;79;25735;-84
2022/11/24 10:22:40;;;;;;;24.05;13.55;;;;;;;0.64;95.09;100288.73;1748856;79;25816;-86
2022/11/24 10:25:40;;;;;;;23.20;13.05;;;;;;;0.68;95.01;100284.35;1791542;78;26108;-84
2022/11/24 10:28:13;;;;;;;23.22;13.53;;;;;;;0.71;95.06;100280.15;1807261;78;25433;-86
2022/11/24 10:30:42;;;;;;;25.27;14.35;;;;;;;0.73;94.76;100277.37;1760745;79;28303;-83
2022/11/24 10:33:33;;;;;;;;;;;;;;;;;;;;;
2022/11/24 10:36:15;;;;;;;23.85;14.18;;;;;;;0.84;94.79;100278.60;1698729;83;25652;-87
2022/11/24 10:38:57;;;;;;;25.30;13.65;;;;;;;0.88;94.62;100274.73;1606558;82;25863;-83
2022/11/24 10:41:37;;;;;;;26.95;14.53;;;;;;;0.91;94.36;100272.31;1748309;79;25930;-85
2022/11/24 10:44:06;;;;;;;27.93;15.38;;;;;;;0.94;94.35;100275.52;1720977;79;28185;-86
2022/11/24 10:46:32;;;;;;;27.82;16.07;;;;;;;0.98;94.05;100278.73;1741260;81;25783;-85
2022/11/24 10:49:03;;;;;;;25.92;15.28;;;;;;;1.01;94.29;100272.70;1751347;79;25919;-84
2022/11/24 10:52:00;;;;;;;27.07;14.68;;;;;;;1.06;94.38;100270.98;1746698;81;25813;-84
2022/11/24 10:54:27;;;;;;;22.90;13.08;;;;;;;1.12;94.50;100267.33;1765181;80;25790;-83
2022/11/24 10:56:54;;;;;;;28.35;14.93;;;;;;;1.12;93.71;100274.39;1737372;81;27413;-82
2022/11/24 10:59:34;;;;;;;24.90;13.98;;;;;;;1.11;93.58;100278.02;1762057;79;25301;-87
2022/11/24 11:02:02;;;;;;;25.70;14.75;;;;;;;1.08;92.97;100274.31;1761516;79;25292;-86
2022/11/24 11:04:34;;;;;;;27.95;14.73;;;;;;;1.03;92.93;100273.40;1761945;81;25942;-85
2022/11/24 11:07:19;;;;;;;25.82;15.43;;;;;;;1.00;92.95;100272.36;1761320;81;25866;-85
2022/11/24 11:09:47;;;;;;;29.80;15.48;;;;;;;0.99;93.01;100272.48;1767764;81;27482;-84
2022/11/24 11:12:29;;;;;;;27.35;15.28;;;;;;;1.01;93.30;100274.49;1767751;80;26363;-83
2022/11/24 11:15:09;;;;;;;27.75;14.95;;;;;;;1.05;93.50;100276.73;1760336;79;25673;-89
2022/11/24 11:17:39;;;;;;;24.85;14.75;;;;;;;1.09;93.64;100272.86;1752252;79;25288;-86
2022/11/24 11:20:31;;;;;;;22.52;13.60;;;;;;;1.11;93.39;100280.66;1765818;79;25338;-84
2022/11/24 11:23:01;;;;;;;26.62;13.90;;;;;;;1.08;93.00;100274.31;1757162;79;27637;-87
2022/11/24 11:25:33;;;;;;;27.25;13.98;;;;;;;1.02;92.88;100279.66;1761554;79;25843;-81
2022/11/24 11:28:27;;;;;;;26.75;14.28;;;;;;;1.00;93.00;100284.70;1750295;81;26331;-85